Řízení letového provozu České republiky
Letiste: LKCV Aktualizace: 29.05.2016 17:06:35  UTC
 METAR LKCV 29.05. 17:00 ...
METAR LKCV 291700Z 12009KT CAVOK 26/15 Q1005 NOSIG=
 TAF LKCV 29.05. 17:00 ...
TAF LKCV 291700Z 2918/3018 13008KT CAVOK      BECMG 3007/3009 SCT035      TEMPO 3011/3018 7000 SHRA BKN030TCU      PROB30 TEMPO 3012/3018 16012G24KT 5000 TSRA BKN025CB=